sensor_id;sensor_type;location;lat;lon;timestamp;temperature;humidity
6841;DHT22;3458;53.678;14.080;2023-05-29T00:00:53;15.10;65.60
6841;DHT22;3458;53.678;14.080;2023-05-29T00:03:18;15.10;65.90
6841;DHT22;3458;53.678;14.080;2023-05-29T00:05:44;15.00;65.90
6841;DHT22;3458;53.678;14.080;2023-05-29T00:08:09;15.00;65.90
6841;DHT22;3458;53.678;14.080;2023-05-29T00:10:35;15.00;66.00
6841;DHT22;3458;53.678;14.080;2023-05-29T00:13:02;14.90;66.10
6841;DHT22;3458;53.678;14.080;2023-05-29T00:15:28;14.90;66.30
6841;DHT22;3458;53.678;14.080;2023-05-29T00:17:53;14.80;66.50
6841;DHT22;3458;53.678;14.080;2023-05-29T00:20:19;14.80;66.70
6841;DHT22;3458;53.678;14.080;2023-05-29T00:22:45;14.80;66.80
6841;DHT22;3458;53.678;14.080;2023-05-29T00:25:10;14.80;66.80
6841;DHT22;3458;53.678;14.080;2023-05-29T00:27:36;14.70;66.40
6841;DHT22;3458;53.678;14.080;2023-05-29T00:30:03;14.60;66.50
6841;DHT22;3458;53.678;14.080;2023-05-29T00:32:29;14.70;66.70
6841;DHT22;3458;53.678;14.080;2023-05-29T00:34:55;14.60;66.60
6841;DHT22;3458;53.678;14.080;2023-05-29T00:37:21;14.60;67.00
6841;DHT22;3458;53.678;14.080;2023-05-29T00:39:47;14.60;67.10
6841;DHT22;3458;53.678;14.080;2023-05-29T00:42:13;14.60;67.40
6841;DHT22;3458;53.678;14.080;2023-05-29T00:44:38;14.50;67.60
6841;DHT22;3458;53.678;14.080;2023-05-29T00:47:04;14.50;67.60
6841;DHT22;3458;53.678;14.080;2023-05-29T00:49:29;14.50;68.00
6841;DHT22;3458;53.678;14.080;2023-05-29T00:51:55;14.50;68.30
6841;DHT22;3458;53.678;14.080;2023-05-29T00:54:25;14.50;68.30
6841;DHT22;3458;53.678;14.080;2023-05-29T00:56:52;14.40;68.40
6841;DHT22;3458;53.678;14.080;2023-05-29T00:59:17;14.40;68.70
6841;DHT22;3458;53.678;14.080;2023-05-29T01:01:47;14.30;68.70
6841;DHT22;3458;53.678;14.080;2023-05-29T01:04:13;14.30;69.00
6841;DHT22;3458;53.678;14.080;2023-05-29T01:06:40;14.30;69.00
6841;DHT22;3458;53.678;14.080;2023-05-29T01:09:06;14.20;69.20
6841;DHT22;3458;53.678;14.080;2023-05-29T01:14:08;14.20;69.70
6841;DHT22;3458;53.678;14.080;2023-05-29T01:17:01;14.10;69.90
6841;DHT22;3458;53.678;14.080;2023-05-29T01:19:58;14.10;70.90
6841;DHT22;3458;53.678;14.080;2023-05-29T01:22:40;14.10;70.10
6841;DHT22;3458;53.678;14.080;2023-05-29T01:27:42;14.00;70.40
6841;DHT22;3458;53.678;14.080;2023-05-29T01:30:11;14.00;70.60
6841;DHT22;3458;53.678;14.080;2023-05-29T01:32:37;14.00;70.90
6841;DHT22;3458;53.678;14.080;2023-05-29T01:35:09;13.90;70.80
6841;DHT22;3458;53.678;14.080;2023-05-29T01:37:35;13.90;70.90
6841;DHT22;3458;53.678;14.080;2023-05-29T01:40:01;13.90;71.10
6841;DHT22;3458;53.678;14.080;2023-05-29T01:42:27;13.90;71.00
6841;DHT22;3458;53.678;14.080;2023-05-29T01:44:55;13.90;71.10
6841;DHT22;3458;53.678;14.080;2023-05-29T01:47:21;13.80;71.30
6841;DHT22;3458;53.678;14.080;2023-05-29T01:49:49;13.80;71.30
6841;DHT22;3458;53.678;14.080;2023-05-29T01:52:15;13.80;71.50
6841;DHT22;3458;53.678;14.080;2023-05-29T01:54:40;13.80;71.80
6841;DHT22;3458;53.678;14.080;2023-05-29T01:57:06;13.70;71.70
6841;DHT22;3458;53.678;14.080;2023-05-29T01:59:33;13.70;71.70
6841;DHT22;3458;53.678;14.080;2023-05-29T02:02:08;13.70;72.10
6841;DHT22;3458;53.678;14.080;2023-05-29T02:04:34;13.70;72.30
6841;DHT22;3458;53.678;14.080;2023-05-29T02:06:59;13.60;72.40
6841;DHT22;3458;53.678;14.080;2023-05-29T02:09:25;13.60;72.60
6841;DHT22;3458;53.678;14.080;2023-05-29T02:11:51;13.60;72.90
6841;DHT22;3458;53.678;14.080;2023-05-29T02:14:16;13.50;74.00
6841;DHT22;3458;53.678;14.080;2023-05-29T02:16:42;13.50;73.50
6841;DHT22;3458;53.678;14.080;2023-05-29T02:19:09;13.50;73.80
6841;DHT22;3458;53.678;14.080;2023-05-29T02:21:38;13.50;74.20
6841;DHT22;3458;53.678;14.080;2023-05-29T02:24:03;13.50;74.50
6841;DHT22;3458;53.678;14.080;2023-05-29T02:26:29;13.50;74.90
6841;DHT22;3458;53.678;14.080;2023-05-29T02:28:54;13.50;74.80
6841;DHT22;3458;53.678;14.080;2023-05-29T02:31:20;13.50;75.10
6841;DHT22;3458;53.678;14.080;2023-05-29T02:33:45;13.40;75.40
6841;DHT22;3458;53.678;14.080;2023-05-29T02:36:11;13.50;76.00
6841;DHT22;3458;53.678;14.080;2023-05-29T02:38:37;13.50;76.40
6841;DHT22;3458;53.678;14.080;2023-05-29T02:41:03;13.50;76.40
6841;DHT22;3458;53.678;14.080;2023-05-29T02:43:28;13.40;76.70
6841;DHT22;3458;53.678;14.080;2023-05-29T02:45:54;13.50;76.70
6841;DHT22;3458;53.678;14.080;2023-05-29T02:48:19;13.40;76.80
6841;DHT22;3458;53.678;14.080;2023-05-29T02:50:45;13.40;77.40
6841;DHT22;3458;53.678;14.080;2023-05-29T02:53:10;13.30;77.60
6841;DHT22;3458;53.678;14.080;2023-05-29T02:55:36;13.30;77.90
6841;DHT22;3458;53.678;14.080;2023-05-29T02:58:02;13.30;78.40
6841;DHT22;3458;53.678;14.080;2023-05-29T03:00:27;13.30;78.40
6841;DHT22;3458;53.678;14.080;2023-05-29T03:02:54;13.30;78.40
6841;DHT22;3458;53.678;14.080;2023-05-29T03:05:20;13.20;78.10
6841;DHT22;3458;53.678;14.080;2023-05-29T03:07:45;13.20;78.40
6841;DHT22;3458;53.678;14.080;2023-05-29T03:10:11;13.20;78.60
6841;DHT22;3458;53.678;14.080;2023-05-29T03:12:37;13.20;78.80
6841;DHT22;3458;53.678;14.080;2023-05-29T03:15:03;13.20;78.90
6841;DHT22;3458;53.678;14.080;2023-05-29T03:17:28;13.20;79.00
6841;DHT22;3458;53.678;14.080;2023-05-29T03:19:54;13.20;78.80
6841;DHT22;3458;53.678;14.080;2023-05-29T03:22:20;13.20;78.80
6841;DHT22;3458;53.678;14.080;2023-05-29T03:24:45;13.20;79.10
6841;DHT22;3458;53.678;14.080;2023-05-29T03:27:11;13.10;79.70
6841;DHT22;3458;53.678;14.080;2023-05-29T03:29:36;13.10;80.40
6841;DHT22;3458;53.678;14.080;2023-05-29T03:32:02;13.10;80.80
6841;DHT22;3458;53.678;14.080;2023-05-29T03:34:27;13.10;81.20
6841;DHT22;3458;53.678;14.080;2023-05-29T03:36:53;13.10;81.60
6841;DHT22;3458;53.678;14.080;2023-05-29T03:39:19;13.10;81.80
6841;DHT22;3458;53.678;14.080;2023-05-29T03:41:44;13.20;83.10
6841;DHT22;3458;53.678;14.080;2023-05-29T03:44:10;13.20;83.70
6841;DHT22;3458;53.678;14.080;2023-05-29T03:46:35;13.20;83.40
6841;DHT22;3458;53.678;14.080;2023-05-29T03:49:01;13.20;84.00
6841;DHT22;3458;53.678;14.080;2023-05-29T03:51:26;13.20;84.90
6841;DHT22;3458;53.678;14.080;2023-05-29T03:53:52;13.30;85.50
6841;DHT22;3458;53.678;14.080;2023-05-29T03:56:17;13.30;86.20
6841;DHT22;3458;53.678;14.080;2023-05-29T03:58:43;13.40;87.20
6841;DHT22;3458;53.678;14.080;2023-05-29T04:01:08;13.40;87.80
6841;DHT22;3458;53.678;14.080;2023-05-29T04:03:34;13.40;88.70
6841;DHT22;3458;53.678;14.080;2023-05-29T04:06:00;13.40;89.30
6841;DHT22;3458;53.678;14.080;2023-05-29T04:08:26;13.50;90.10
6841;DHT22;3458;53.678;14.080;2023-05-29T04:10:51;13.50;90.30
6841;DHT22;3458;53.678;14.080;2023-05-29T04:13:19;13.50;90.60
6841;DHT22;3458;53.678;14.080;2023-05-29T04:15:45;13.50;91.00
6841;DHT22;3458;53.678;14.080;2023-05-29T04:18:10;13.60;91.50
6841;DHT22;3458;53.678;14.080;2023-05-29T04:20:36;13.60;91.70
6841;DHT22;3458;53.678;14.080;2023-05-29T04:23:02;13.60;91.70
6841;DHT22;3458;53.678;14.080;2023-05-29T04:25:27;13.50;91.90
6841;DHT22;3458;53.678;14.080;2023-05-29T04:27:52;13.60;92.30
6841;DHT22;3458;53.678;14.080;2023-05-29T04:30:18;13.60;92.50
6841;DHT22;3458;53.678;14.080;2023-05-29T04:32:43;13.70;92.60
6841;DHT22;3458;53.678;14.080;2023-05-29T04:35:09;13.60;92.90
6841;DHT22;3458;53.678;14.080;2023-05-29T04:37:36;13.60;93.10
6841;DHT22;3458;53.678;14.080;2023-05-29T04:40:08;13.70;93.40
6841;DHT22;3458;53.678;14.080;2023-05-29T04:42:37;13.70;93.60
6841;DHT22;3458;53.678;14.080;2023-05-29T04:45:04;13.70;93.80
6841;DHT22;3458;53.678;14.080;2023-05-29T04:47:33;13.70;94.10
6841;DHT22;3458;53.678;14.080;2023-05-29T04:49:59;13.70;94.40
6841;DHT22;3458;53.678;14.080;2023-05-29T04:52:25;13.70;94.60
6841;DHT22;3458;53.678;14.080;2023-05-29T04:54:51;13.80;95.00
6841;DHT22;3458;53.678;14.080;2023-05-29T04:57:17;13.80;95.30
6841;DHT22;3458;53.678;14.080;2023-05-29T04:59:43;13.80;95.50
6841;DHT22;3458;53.678;14.080;2023-05-29T05:02:08;13.80;95.80
6841;DHT22;3458;53.678;14.080;2023-05-29T05:04:34;13.80;96.20
6841;DHT22;3458;53.678;14.080;2023-05-29T05:07:00;13.90;96.60
6841;DHT22;3458;53.678;14.080;2023-05-29T05:09:25;13.90;97.10
6841;DHT22;3458;53.678;14.080;2023-05-29T05:11:51;13.90;97.40
6841;DHT22;3458;53.678;14.080;2023-05-29T05:14:17;14.00;97.80
6841;DHT22;3458;53.678;14.080;2023-05-29T05:16:42;14.00;98.20
6841;DHT22;3458;53.678;14.080;2023-05-29T05:19:08;14.00;98.60
6841;DHT22;3458;53.678;14.080;2023-05-29T05:21:33;14.00;98.90
6841;DHT22;3458;53.678;14.080;2023-05-29T05:24:00;14.10;99.40
6841;DHT22;3458;53.678;14.080;2023-05-29T05:26:25;14.10;99.80
6841;DHT22;3458;53.678;14.080;2023-05-29T05:28:54;14.10;99.90
6841;DHT22;3458;53.678;14.080;2023-05-29T05:31:19;14.20;99.90
6841;DHT22;3458;53.678;14.080;2023-05-29T05:33:45;14.20;99.90
6841;DHT22;3458;53.678;14.080;2023-05-29T05:36:11;14.20;99.90
6841;DHT22;3458;53.678;14.080;2023-05-29T05:38:36;14.30;99.90
6841;DHT22;3458;53.678;14.080;2023-05-29T05:41:02;14.30;99.90
6841;DHT22;3458;53.678;14.080;2023-05-29T05:43:27;14.40;99.90
6841;DHT22;3458;53.678;14.080;2023-05-29T05:45:54;14.40;99.90
6841;DHT22;3458;53.678;14.080;2023-05-29T05:48:19;14.40;99.90
6841;DHT22;3458;53.678;14.080;2023-05-29T05:50:45;14.50;99.90
6841;DHT22;3458;53.678;14.080;2023-05-29T05:53:10;14.50;99.90
6841;DHT22;3458;53.678;14.080;2023-05-29T05:55:36;14.60;99.90
6841;DHT22;3458;53.678;14.080;2023-05-29T05:58:01;14.60;99.90
6841;DHT22;3458;53.678;14.080;2023-05-29T06:00:27;14.70;99.90
6841;DHT22;3458;53.678;14.080;2023-05-29T06:02:53;14.70;99.90
6841;DHT22;3458;53.678;14.080;2023-05-29T06:05:18;14.80;99.90
6841;DHT22;3458;53.678;14.080;2023-05-29T06:07:44;14.90;99.90
6841;DHT22;3458;53.678;14.080;2023-05-29T06:10:10;14.90;99.90
6841;DHT22;3458;53.678;14.080;2023-05-29T06:12:35;14.90;99.90
6841;DHT22;3458;53.678;14.080;2023-05-29T06:15:01;15.00;99.90
6841;DHT22;3458;53.678;14.080;2023-05-29T06:17:28;15.00;99.90
6841;DHT22;3458;53.678;14.080;2023-05-29T06:19:54;15.10;99.90
6841;DHT22;3458;53.678;14.080;2023-05-29T06:22:20;15.10;99.90
6841;DHT22;3458;53.678;14.080;2023-05-29T06:24:45;15.20;99.90
6841;DHT22;3458;53.678;14.080;2023-05-29T06:27:11;15.20;99.90
6841;DHT22;3458;53.678;14.080;2023-05-29T06:29:36;15.30;99.90
6841;DHT22;3458;53.678;14.080;2023-05-29T06:32:02;15.30;99.90
6841;DHT22;3458;53.678;14.080;2023-05-29T06:34:27;15.40;99.90
6841;DHT22;3458;53.678;14.080;2023-05-29T06:36:53;15.40;99.90
6841;DHT22;3458;53.678;14.080;2023-05-29T06:39:18;15.40;99.90
6841;DHT22;3458;53.678;14.080;2023-05-29T06:41:45;15.50;99.90
6841;DHT22;3458;53.678;14.080;2023-05-29T06:44:11;15.50;99.90
6841;DHT22;3458;53.678;14.080;2023-05-29T06:46:36;15.50;99.90
6841;DHT22;3458;53.678;14.080;2023-05-29T06:49:01;15.60;99.90
6841;DHT22;3458;53.678;14.080;2023-05-29T06:51:27;15.60;99.90
6841;DHT22;3458;53.678;14.080;2023-05-29T06:53:52;15.70;99.90
6841;DHT22;3458;53.678;14.080;2023-05-29T06:56:18;15.80;99.90
6841;DHT22;3458;53.678;14.080;2023-05-29T06:58:43;15.90;99.90
6841;DHT22;3458;53.678;14.080;2023-05-29T07:01:10;15.90;99.90
6841;DHT22;3458;53.678;14.080;2023-05-29T07:03:36;16.00;99.90
6841;DHT22;3458;53.678;14.080;2023-05-29T07:06:02;15.90;99.90
6841;DHT22;3458;53.678;14.080;2023-05-29T07:08:27;15.90;99.90
6841;DHT22;3458;53.678;14.080;2023-05-29T07:10:53;16.00;99.90
6841;DHT22;3458;53.678;14.080;2023-05-29T07:13:18;16.00;99.90
6841;DHT22;3458;53.678;14.080;2023-05-29T07:15:44;16.10;99.90
6841;DHT22;3458;53.678;14.080;2023-05-29T07:18:10;16.10;99.90
6841;DHT22;3458;53.678;14.080;2023-05-29T07:20:38;16.10;99.90
6841;DHT22;3458;53.678;14.080;2023-05-29T07:23:04;16.20;99.90
6841;DHT22;3458;53.678;14.080;2023-05-29T07:25:30;16.20;99.90
6841;DHT22;3458;53.678;14.080;2023-05-29T07:27:56;16.20;99.90
6841;DHT22;3458;53.678;14.080;2023-05-29T07:30:21;16.20;99.90
6841;DHT22;3458;53.678;14.080;2023-05-29T07:32:47;16.30;99.90
6841;DHT22;3458;53.678;14.080;2023-05-29T07:35:12;16.30;99.90
6841;DHT22;3458;53.678;14.080;2023-05-29T07:37:38;16.20;99.90
6841;DHT22;3458;53.678;14.080;2023-05-29T07:40:04;16.20;99.90
6841;DHT22;3458;53.678;14.080;2023-05-29T07:42:31;16.20;99.90
6841;DHT22;3458;53.678;14.080;2023-05-29T07:44:57;16.20;99.90
6841;DHT22;3458;53.678;14.080;2023-05-29T07:47:23;16.30;99.90
6841;DHT22;3458;53.678;14.080;2023-05-29T07:49:49;16.30;99.90
6841;DHT22;3458;53.678;14.080;2023-05-29T07:52:14;16.20;99.90
6841;DHT22;3458;53.678;14.080;2023-05-29T07:54:40;16.20;99.90
6841;DHT22;3458;53.678;14.080;2023-05-29T07:57:06;16.30;99.90
6841;DHT22;3458;53.678;14.080;2023-05-29T07:59:39;16.40;99.90
6841;DHT22;3458;53.678;14.080;2023-05-29T08:02:05;16.40;99.90
6841;DHT22;3458;53.678;14.080;2023-05-29T08:04:31;16.40;99.90
6841;DHT22;3458;53.678;14.080;2023-05-29T08:06:58;16.30;99.90
6841;DHT22;3458;53.678;14.080;2023-05-29T08:09:23;16.40;99.90
6841;DHT22;3458;53.678;14.080;2023-05-29T08:11:49;16.50;99.90
6841;DHT22;3458;53.678;14.080;2023-05-29T08:14:15;16.70;99.90
6841;DHT22;3458;53.678;14.080;2023-05-29T08:16:41;16.90;99.90
6841;DHT22;3458;53.678;14.080;2023-05-29T08:19:07;17.00;99.90
6841;DHT22;3458;53.678;14.080;2023-05-29T08:21:32;16.90;99.90
6841;DHT22;3458;53.678;14.080;2023-05-29T08:23:58;16.70;99.90
6841;DHT22;3458;53.678;14.080;2023-05-29T08:26:24;16.70;99.90
6841;DHT22;3458;53.678;14.080;2023-05-29T08:28:50;16.70;99.90
6841;DHT22;3458;53.678;14.080;2023-05-29T08:31:15;16.80;99.90
6841;DHT22;3458;53.678;14.080;2023-05-29T08:33:41;16.90;99.90
6841;DHT22;3458;53.678;14.080;2023-05-29T08:36:07;17.00;99.90
6841;DHT22;3458;53.678;14.080;2023-05-29T08:38:34;17.10;99.90
6841;DHT22;3458;53.678;14.080;2023-05-29T08:41:00;17.10;99.00
6841;DHT22;3458;53.678;14.080;2023-05-29T08:43:30;17.20;99.50
6841;DHT22;3458;53.678;14.080;2023-05-29T08:45:59;17.30;99.50
6841;DHT22;3458;53.678;14.080;2023-05-29T08:48:27;17.40;98.00
6841;DHT22;3458;53.678;14.080;2023-05-29T08:50:54;17.40;97.60
6841;DHT22;3458;53.678;14.080;2023-05-29T08:53:21;17.40;97.00
6841;DHT22;3458;53.678;14.080;2023-05-29T08:55:47;17.40;97.30
6841;DHT22;3458;53.678;14.080;2023-05-29T08:58:14;17.60;97.90
6841;DHT22;3458;53.678;14.080;2023-05-29T09:00:39;17.80;99.30
6841;DHT22;3458;53.678;14.080;2023-05-29T09:03:06;17.90;97.70
6841;DHT22;3458;53.678;14.080;2023-05-29T09:05:32;18.00;96.40
6841;DHT22;3458;53.678;14.080;2023-05-29T09:07:58;18.10;95.50
6841;DHT22;3458;53.678;14.080;2023-05-29T09:10:24;18.10;95.30
6841;DHT22;3458;53.678;14.080;2023-05-29T09:12:50;18.10;94.10
6841;DHT22;3458;53.678;14.080;2023-05-29T09:17:44;17.80;92.90
6841;DHT22;3458;53.678;14.080;2023-05-29T09:20:16;17.70;92.80
6841;DHT22;3458;53.678;14.080;2023-05-29T09:22:59;17.60;93.40
6841;DHT22;3458;53.678;14.080;2023-05-29T09:25:30;17.50;93.60
6841;DHT22;3458;53.678;14.080;2023-05-29T09:28:05;17.60;93.90
6841;DHT22;3458;53.678;14.080;2023-05-29T09:30:36;17.80;94.40
6841;DHT22;3458;53.678;14.080;2023-05-29T09:33:03;17.80;93.00
6841;DHT22;3458;53.678;14.080;2023-05-29T09:35:33;17.80;92.90
6841;DHT22;3458;53.678;14.080;2023-05-29T09:37:59;17.80;93.10
6841;DHT22;3458;53.678;14.080;2023-05-29T09:40:25;17.70;93.20
6841;DHT22;3458;53.678;14.080;2023-05-29T09:42:52;17.60;93.10
6841;DHT22;3458;53.678;14.080;2023-05-29T09:45:18;17.50;93.30
6841;DHT22;3458;53.678;14.080;2023-05-29T09:47:50;17.70;93.80
6841;DHT22;3458;53.678;14.080;2023-05-29T09:50:19;17.90;93.80
6841;DHT22;3458;53.678;14.080;2023-05-29T09:52:48;18.10;93.80
6841;DHT22;3458;53.678;14.080;2023-05-29T09:55:18;18.10;92.70
6841;DHT22;3458;53.678;14.080;2023-05-29T09:57:47;18.20;93.10
6841;DHT22;3458;53.678;14.080;2023-05-29T10:00:17;18.50;93.00
6841;DHT22;3458;53.678;14.080;2023-05-29T10:02:43;18.60;92.20
6841;DHT22;3458;53.678;14.080;2023-05-29T10:05:09;18.60;92.30
6841;DHT22;3458;53.678;14.080;2023-05-29T10:07:37;18.50;91.80
6841;DHT22;3458;53.678;14.080;2023-05-29T10:10:04;18.40;91.70
6841;DHT22;3458;53.678;14.080;2023-05-29T10:12:32;18.30;91.20
6841;DHT22;3458;53.678;14.080;2023-05-29T10:15:01;18.10;89.80
6841;DHT22;3458;53.678;14.080;2023-05-29T10:17:34;18.20;89.60
6841;DHT22;3458;53.678;14.080;2023-05-29T10:20:02;18.20;89.10
6841;DHT22;3458;53.678;14.080;2023-05-29T10:22:33;18.50;90.00
6841;DHT22;3458;53.678;14.080;2023-05-29T10:25:01;18.60;89.00
6841;DHT22;3458;53.678;14.080;2023-05-29T10:27:28;18.80;89.00
6841;DHT22;3458;53.678;14.080;2023-05-29T10:29:59;19.00;89.60
6841;DHT22;3458;53.678;14.080;2023-05-29T10:32:32;19.10;87.70
6841;DHT22;3458;53.678;14.080;2023-05-29T10:37:59;18.90;86.80
6841;DHT22;3458;53.678;14.080;2023-05-29T10:40:28;19.00;87.60
6841;DHT22;3458;53.678;14.080;2023-05-29T10:42:54;19.00;88.40
6841;DHT22;3458;53.678;14.080;2023-05-29T10:50:42;19.20;86.40
6841;DHT22;3458;53.678;14.080;2023-05-29T10:53:09;19.00;85.40
6841;DHT22;3458;53.678;14.080;2023-05-29T10:55:36;19.00;86.60
6841;DHT22;3458;53.678;14.080;2023-05-29T10:58:08;19.10;87.00
6841;DHT22;3458;53.678;14.080;2023-05-29T11:00:34;19.10;87.40
6841;DHT22;3458;53.678;14.080;2023-05-29T11:03:07;19.30;88.00
6841;DHT22;3458;53.678;14.080;2023-05-29T11:05:33;19.40;88.90
6841;DHT22;3458;53.678;14.080;2023-05-29T11:08:00;19.40;85.40
6841;DHT22;3458;53.678;14.080;2023-05-29T11:13:31;19.60;85.30
6841;DHT22;3458;53.678;14.080;2023-05-29T11:16:13;19.70;85.40
6841;DHT22;3458;53.678;14.080;2023-05-29T11:18:44;19.70;84.00
6841;DHT22;3458;53.678;14.080;2023-05-29T11:23:58;20.00;81.70
6841;DHT22;3458;53.678;14.080;2023-05-29T11:26:26;20.10;81.60
6841;DHT22;3458;53.678;14.080;2023-05-29T11:28:52;20.20;81.30
6841;DHT22;3458;53.678;14.080;2023-05-29T11:31:18;20.20;80.40
6841;DHT22;3458;53.678;14.080;2023-05-29T11:33:49;20.20;79.70
6841;DHT22;3458;53.678;14.080;2023-05-29T11:36:17;20.30;79.00
6841;DHT22;3458;53.678;14.080;2023-05-29T11:38:43;20.30;78.10
6841;DHT22;3458;53.678;14.080;2023-05-29T11:41:09;20.50;77.20
6841;DHT22;3458;53.678;14.080;2023-05-29T11:43:35;20.60;76.50
6841;DHT22;3458;53.678;14.080;2023-05-29T11:46:01;20.60;76.10
6841;DHT22;3458;53.678;14.080;2023-05-29T11:48:26;20.60;75.70
6841;DHT22;3458;53.678;14.080;2023-05-29T11:50:52;20.60;76.50
6841;DHT22;3458;53.678;14.080;2023-05-29T11:53:18;20.90;75.90
6841;DHT22;3458;53.678;14.080;2023-05-29T11:55:43;21.40;74.40
6841;DHT22;3458;53.678;14.080;2023-05-29T11:58:10;21.90;73.10
6841;DHT22;3458;53.678;14.080;2023-05-29T12:00:37;22.70;73.00
6841;DHT22;3458;53.678;14.080;2023-05-29T12:03:04;23.60;69.20
6841;DHT22;3458;53.678;14.080;2023-05-29T12:05:32;23.80;62.90
6841;DHT22;3458;53.678;14.080;2023-05-29T12:07:58;23.10;60.90
6841;DHT22;3458;53.678;14.080;2023-05-29T12:10:27;22.40;61.50
6841;DHT22;3458;53.678;14.080;2023-05-29T12:12:58;21.70;63.50
6841;DHT22;3458;53.678;14.080;2023-05-29T12:15:24;21.40;63.60
6841;DHT22;3458;53.678;14.080;2023-05-29T12:17:51;21.10;64.50
6841;DHT22;3458;53.678;14.080;2023-05-29T12:20:18;21.70;66.00
6841;DHT22;3458;53.678;14.080;2023-05-29T12:22:45;23.30;60.60
6841;DHT22;3458;53.678;14.080;2023-05-29T12:25:13;24.80;58.60
6841;DHT22;3458;53.678;14.080;2023-05-29T12:27:43;25.90;55.20
6841;DHT22;3458;53.678;14.080;2023-05-29T12:30:21;26.70;53.40
6841;DHT22;3458;53.678;14.080;2023-05-29T12:32:52;27.30;49.80
6841;DHT22;3458;53.678;14.080;2023-05-29T12:35:24;26.60;50.70
6841;DHT22;3458;53.678;14.080;2023-05-29T12:38:07;26.40;49.10
6841;DHT22;3458;53.678;14.080;2023-05-29T12:40:35;26.70;48.50
6841;DHT22;3458;53.678;14.080;2023-05-29T12:43:10;26.40;47.70
6841;DHT22;3458;53.678;14.080;2023-05-29T12:45:37;25.70;47.50
6841;DHT22;3458;53.678;14.080;2023-05-29T12:48:04;24.80;48.40
6841;DHT22;3458;53.678;14.080;2023-05-29T12:50:32;24.60;51.40
6841;DHT22;3458;53.678;14.080;2023-05-29T12:55:38;24.60;50.80
6841;DHT22;3458;53.678;14.080;2023-05-29T12:58:05;25.50;51.30
6841;DHT22;3458;53.678;14.080;2023-05-29T13:00:33;26.00;48.20
6841;DHT22;3458;53.678;14.080;2023-05-29T13:02:59;26.00;47.30
6841;DHT22;3458;53.678;14.080;2023-05-29T13:05:24;26.30;48.20
6841;DHT22;3458;53.678;14.080;2023-05-29T13:07:50;26.80;47.50
6841;DHT22;3458;53.678;14.080;2023-05-29T13:10:20;27.10;46.30
6841;DHT22;3458;53.678;14.080;2023-05-29T13:12:46;27.50;44.90
6841;DHT22;3458;53.678;14.080;2023-05-29T13:15:13;27.60;42.90
6841;DHT22;3458;53.678;14.080;2023-05-29T13:17:39;27.80;43.10
6841;DHT22;3458;53.678;14.080;2023-05-29T13:20:10;27.70;44.00
6841;DHT22;3458;53.678;14.080;2023-05-29T13:22:36;27.50;43.80
6841;DHT22;3458;53.678;14.080;2023-05-29T13:25:02;27.40;43.70
6841;DHT22;3458;53.678;14.080;2023-05-29T13:27:27;27.60;44.10
6841;DHT22;3458;53.678;14.080;2023-05-29T13:29:54;27.90;42.70
6841;DHT22;3458;53.678;14.080;2023-05-29T13:32:20;28.10;41.30
6841;DHT22;3458;53.678;14.080;2023-05-29T13:34:46;28.10;40.20
6841;DHT22;3458;53.678;14.080;2023-05-29T13:37:11;28.20;38.80
6841;DHT22;3458;53.678;14.080;2023-05-29T13:39:37;28.20;38.20
6841;DHT22;3458;53.678;14.080;2023-05-29T13:42:02;28.50;39.20
6841;DHT22;3458;53.678;14.080;2023-05-29T13:44:28;28.60;39.30
6841;DHT22;3458;53.678;14.080;2023-05-29T13:46:53;28.90;40.00
6841;DHT22;3458;53.678;14.080;2023-05-29T13:49:19;28.70;38.60
6841;DHT22;3458;53.678;14.080;2023-05-29T13:51:45;28.80;39.00
6841;DHT22;3458;53.678;14.080;2023-05-29T13:54:12;29.20;37.90
6841;DHT22;3458;53.678;14.080;2023-05-29T13:56:37;29.10;37.30
6841;DHT22;3458;53.678;14.080;2023-05-29T13:59:03;28.90;38.10
6841;DHT22;3458;53.678;14.080;2023-05-29T14:01:32;29.30;38.60
6841;DHT22;3458;53.678;14.080;2023-05-29T14:03:58;29.60;37.20
6841;DHT22;3458;53.678;14.080;2023-05-29T14:06:24;29.80;36.50
6841;DHT22;3458;53.678;14.080;2023-05-29T14:08:50;29.80;36.10
6841;DHT22;3458;53.678;14.080;2023-05-29T14:11:15;29.50;35.70
6841;DHT22;3458;53.678;14.080;2023-05-29T14:13:41;29.10;35.70
6841;DHT22;3458;53.678;14.080;2023-05-29T14:16:06;28.60;36.70
6841;DHT22;3458;53.678;14.080;2023-05-29T14:18:32;28.80;37.50
6841;DHT22;3458;53.678;14.080;2023-05-29T14:20:57;29.00;37.40
6841;DHT22;3458;53.678;14.080;2023-05-29T14:23:23;29.30;36.30
6841;DHT22;3458;53.678;14.080;2023-05-29T14:25:48;29.20;36.00
6841;DHT22;3458;53.678;14.080;2023-05-29T14:28:14;29.30;36.70
6841;DHT22;3458;53.678;14.080;2023-05-29T14:30:39;29.60;36.10
6841;DHT22;3458;53.678;14.080;2023-05-29T14:33:05;29.60;35.30
6841;DHT22;3458;53.678;14.080;2023-05-29T14:35:31;29.60;36.50
6841;DHT22;3458;53.678;14.080;2023-05-29T14:37:57;30.10;36.60
6841;DHT22;3458;53.678;14.080;2023-05-29T14:40:22;30.20;35.50
6841;DHT22;3458;53.678;14.080;2023-05-29T14:42:48;29.90;32.90
6841;DHT22;3458;53.678;14.080;2023-05-29T14:45:13;29.10;32.90
6841;DHT22;3458;53.678;14.080;2023-05-29T14:47:40;28.70;34.20
6841;DHT22;3458;53.678;14.080;2023-05-29T14:50:06;28.30;34.60
6841;DHT22;3458;53.678;14.080;2023-05-29T14:52:32;27.80;35.70
6841;DHT22;3458;53.678;14.080;2023-05-29T14:54:59;27.40;36.60
6841;DHT22;3458;53.678;14.080;2023-05-29T14:57:25;27.00;37.50
6841;DHT22;3458;53.678;14.080;2023-05-29T14:59:50;26.90;37.40
6841;DHT22;3458;53.678;14.080;2023-05-29T15:02:16;27.00;37.80
6841;DHT22;3458;53.678;14.080;2023-05-29T15:04:41;27.30;37.80
6841;DHT22;3458;53.678;14.080;2023-05-29T15:07:07;27.60;36.90
6841;DHT22;3458;53.678;14.080;2023-05-29T15:09:33;28.40;37.10
6841;DHT22;3458;53.678;14.080;2023-05-29T15:11:58;29.10;35.10
6841;DHT22;3458;53.678;14.080;2023-05-29T15:14:24;29.20;33.70
6841;DHT22;3458;53.678;14.080;2023-05-29T15:16:50;29.20;32.90
6841;DHT22;3458;53.678;14.080;2023-05-29T15:19:15;28.70;33.40
6841;DHT22;3458;53.678;14.080;2023-05-29T15:21:41;28.40;33.90
6841;DHT22;3458;53.678;14.080;2023-05-29T15:24:07;28.20;33.90
6841;DHT22;3458;53.678;14.080;2023-05-29T15:26:33;28.00;34.00
6841;DHT22;3458;53.678;14.080;2023-05-29T15:28:59;28.10;34.10
6841;DHT22;3458;53.678;14.080;2023-05-29T15:31:25;28.50;33.90
6841;DHT22;3458;53.678;14.080;2023-05-29T15:33:50;28.70;34.10
6841;DHT22;3458;53.678;14.080;2023-05-29T15:36:16;29.00;32.70
6841;DHT22;3458;53.678;14.080;2023-05-29T15:38:44;28.90;32.10
6841;DHT22;3458;53.678;14.080;2023-05-29T15:41:09;28.80;33.00
6841;DHT22;3458;53.678;14.080;2023-05-29T15:43:34;29.20;32.00
6841;DHT22;3458;53.678;14.080;2023-05-29T15:46:00;29.10;30.50
6841;DHT22;3458;53.678;14.080;2023-05-29T15:48:25;29.30;30.00
6841;DHT22;3458;53.678;14.080;2023-05-29T15:50:51;29.10;29.40
6841;DHT22;3458;53.678;14.080;2023-05-29T15:53:16;29.10;30.00
6841;DHT22;3458;53.678;14.080;2023-05-29T15:55:42;29.20;30.00
6841;DHT22;3458;53.678;14.080;2023-05-29T15:58:08;28.60;29.20
6841;DHT22;3458;53.678;14.080;2023-05-29T16:00:33;27.90;30.00
6841;DHT22;3458;53.678;14.080;2023-05-29T16:03:02;27.50;30.40
6841;DHT22;3458;53.678;14.080;2023-05-29T16:05:28;26.90;31.80